METAR Data
IDs: Format: Raw Decoded Include TAF

Data at: 1404 UTC 10 Jul 2020

KLRU 101355Z AUTO 00000KT 10SM CLR 29/05 A3012 RMK AO2 T02910046

KLRU 101120Z 1012/1112 04005KT P6SM FEW140
  FM101700 03012KT P6SM FEW120
  FM102100 13007KT P6SM FEW120 FEW250